Time;durP1;ratioP1;P1;durP2;ratioP2;P2;SDS_P1;SDS_P2;PMS_P1;PMS_P2;Temp;Humidity;BMP_temperature;BMP_pressure;BME280_temperature;BME280_humidity;BME280_pressure;Samples;Min_cycle;Max_cycle;Signal;HPM_P1;HPM_P2
2023/11/28 00:01:44;;;;;;;7.80;4.72;;;;;;;-0.87;61.87;97312.38;5054604;28;20037;-56
2023/11/28 00:04:10;;;;;;;8.23;4.50;;;;;;;-0.79;62.06;97265.34;5053759;28;20028;-55
2023/11/28 00:06:36;;;;;;;6.88;4.63;;;;;;;-0.86;62.41;97272.00;5054774;28;20025;-59
2023/11/28 00:09:03;;;;;;;7.78;4.50;;;;;;;-0.80;62.11;97283.84;5054229;28;20033;-58
2023/11/28 00:11:28;;;;;;;6.82;4.07;;;;;;;-0.80;61.80;97289.94;5049929;28;20357;-57
2023/11/28 00:13:54;;;;;;;6.80;4.30;;;;;;;-1.06;61.69;97242.81;5054942;28;20041;-58
2023/11/28 00:16:20;;;;;;;6.43;4.40;;;;;;;-0.82;62.26;97302.34;5054504;28;20444;-56
2023/11/28 00:18:45;;;;;;;8.63;4.50;;;;;;;-0.87;62.38;97299.22;5054787;28;20036;-55
2023/11/28 00:21:14;;;;;;;7.75;4.50;;;;;;;-0.74;62.51;97294.72;5054819;28;20029;-54
2023/11/28 00:23:40;;;;;;;6.75;3.80;;;;;;;-0.80;62.34;97313.56;5054313;28;20029;-56
2023/11/28 00:26:06;;;;;;;5.75;4.00;;;;;;;-0.79;62.01;97317.88;5050889;28;20430;-56
2023/11/28 00:28:32;;;;;;;5.95;3.90;;;;;;;-0.84;62.16;97321.78;5034796;28;20048;-56
2023/11/28 00:30:57;;;;;;;6.45;4.05;;;;;;;-0.81;61.99;97324.22;5035081;28;20033;-55
2023/11/28 00:33:23;;;;;;;5.68;3.58;;;;;;;-0.92;62.67;97322.38;5052258;28;20033;-56
2023/11/28 00:35:49;;;;;;;6.43;4.20;;;;;;;-0.85;62.65;97323.59;5054497;28;20048;-57
2023/11/28 00:38:14;;;;;;;6.97;4.15;;;;;;;-0.92;62.82;97332.88;5054511;28;20337;-58
2023/11/28 00:40:40;;;;;;;6.57;3.70;;;;;;;-0.92;62.63;97328.47;5052763;28;20025;-53
2023/11/28 00:43:07;;;;;;;4.75;3.00;;;;;;;-1.16;62.82;97275.97;5034260;28;20074;-56
2023/11/28 00:45:33;;;;;;;3.22;2.63;;;;;;;-0.96;62.60;97326.19;5043888;28;20060;-56
2023/11/28 00:47:58;;;;;;;6.07;3.50;;;;;;;-0.98;63.20;97326.28;5054584;28;20464;-54
2023/11/28 00:50:24;;;;;;;6.22;3.78;;;;;;;-0.98;63.29;97339.44;5054506;28;20029;-57
2023/11/28 00:52:49;;;;;;;5.00;3.15;;;;;;;-1.04;63.60;97343.34;5054011;28;20068;-59
2023/11/28 00:55:16;;;;;;;4.97;3.38;;;;;;;-0.96;63.59;97347.22;5052384;28;20044;-53
2023/11/28 00:57:44;;;;;;;5.28;3.78;;;;;;;-1.18;63.70;97335.63;5053576;28;20090;-52
2023/11/28 01:00:10;;;;;;;5.93;3.72;;;;;;;-0.97;63.80;97354.22;5054335;28;20029;-56
2023/11/28 01:02:37;;;;;;;7.70;3.63;;;;;;;-1.34;64.28;97312.25;5053972;28;20040;-56
2023/11/28 01:05:04;;;;;;;6.50;4.10;;;;;;;-1.06;64.37;97355.75;5053538;28;20112;-57
2023/11/28 01:07:31;;;;;;;5.60;3.92;;;;;;;-1.00;63.85;97378.09;5053763;28;20033;-57
2023/11/28 01:09:57;;;;;;;4.55;3.00;;;;;;;-0.86;63.65;97374.47;5052493;28;20025;-55
2023/11/28 01:12:23;;;;;;;4.60;3.30;;;;;;;-0.97;64.00;97392.78;5049994;28;20025;-59
2023/11/28 01:14:49;;;;;;;5.47;3.80;;;;;;;-0.99;63.35;97381.53;5053598;28;20033;-53
2023/11/28 01:17:14;;;;;;;5.63;3.50;;;;;;;-0.94;63.07;97389.97;5052034;28;20413;-59
2023/11/28 01:19:40;;;;;;;4.75;3.50;;;;;;;-0.93;62.74;97391.63;5053761;28;20033;-54
2023/11/28 01:22:11;;;;;;;4.45;3.10;;;;;;;-1.00;62.63;97383.34;5053419;28;20028;-58
2023/11/28 01:24:39;;;;;;;4.03;3.13;;;;;;;-0.98;63.33;97396.34;5053359;28;20028;-55
2023/11/28 01:27:05;;;;;;;4.75;3.13;;;;;;;-0.89;62.62;97400.97;5053122;28;20380;-59
2023/11/28 01:29:32;;;;;;;5.68;3.72;;;;;;;-0.85;62.62;97419.94;5053507;28;20033;-56
2023/11/28 01:31:59;;;;;;;4.07;2.65;;;;;;;-1.14;62.39;97371.22;5051925;28;20028;-57
2023/11/28 01:34:24;;;;;;;4.40;3.05;;;;;;;-1.26;62.87;97388.69;5053112;28;20025;-57
2023/11/28 01:36:51;;;;;;;4.25;3.25;;;;;;;-1.12;63.68;97416.59;5052069;28;20035;-57
2023/11/28 01:39:16;;;;;;;8.30;3.78;;;;;;;-0.96;62.47;97436.50;5051161;28;20059;-56
2023/11/28 01:41:46;;;;;;;5.65;3.65;;;;;;;-1.06;62.88;97429.28;5050598;28;20037;-57
2023/11/28 01:44:12;;;;;;;6.78;3.88;;;;;;;-1.23;63.74;97419.97;5052767;28;20029;-58
2023/11/28 01:46:39;;;;;;;6.45;3.58;;;;;;;-1.14;63.44;97425.50;5052291;28;20025;-57
2023/11/28 01:49:06;;;;;;;6.82;4.22;;;;;;;-1.10;63.15;97443.56;5052212;28;20044;-59
2023/11/28 01:51:32;;;;;;;8.23;3.72;;;;;;;-1.39;63.21;97396.59;5053104;28;20040;-58
2023/11/28 01:54:02;;;;;;;5.13;3.30;;;;;;;-1.10;63.47;97447.97;5052714;28;20028;-58
2023/11/28 01:56:29;;;;;;;5.70;3.95;;;;;;;-1.10;63.48;97446.19;5050376;28;20020;-56
2023/11/28 01:58:56;;;;;;;7.53;4.10;;;;;;;-1.07;63.42;97450.41;5043856;28;20041;-57
2023/11/28 02:01:23;;;;;;;7.03;4.15;;;;;;;-1.11;63.68;97464.69;5033567;28;20041;-56
2023/11/28 02:03:49;;;;;;;7.00;4.28;;;;;;;-1.09;63.31;97473.28;5032640;28;20452;-57
2023/11/28 02:06:15;;;;;;;6.55;4.50;;;;;;;-1.08;63.18;97470.56;5032438;28;20525;-58
2023/11/28 02:08:41;;;;;;;7.18;4.22;;;;;;;-1.20;63.63;97459.16;5031896;28;20033;-56
2023/11/28 02:11:07;;;;;;;6.40;4.03;;;;;;;-1.05;63.71;97480.03;5032914;28;20034;-59
2023/11/28 02:13:33;;;;;;;5.20;3.75;;;;;;;-1.01;62.32;97477.06;5033238;28;20099;-56
2023/11/28 02:16:08;;;;;;;5.90;3.97;;;;;;;-1.08;62.63;97475.00;5036442;28;20171;-51
2023/11/28 02:18:33;;;;;;;6.68;4.05;;;;;;;-1.06;63.17;97470.47;5032874;28;20083;-54
2023/11/28 02:20:59;;;;;;;6.47;3.83;;;;;;;-1.05;63.13;97486.09;5032521;28;20120;-55
2023/11/28 02:23:25;;;;;;;5.30;3.90;;;;;;;-1.10;63.27;97485.59;5032556;28;20037;-57
2023/11/28 02:25:51;;;;;;;6.70;4.07;;;;;;;-0.96;62.85;97497.75;5032425;28;20122;-55
2023/11/28 02:28:18;;;;;;;6.95;3.97;;;;;;;-1.02;62.93;97509.53;5032418;28;20116;-56
2023/11/28 02:30:48;;;;;;;6.20;3.90;;;;;;;-0.94;62.73;97503.72;5033261;28;20066;-56
2023/11/28 02:33:14;;;;;;;4.68;3.35;;;;;;;-1.05;62.42;97509.75;5032530;28;20041;-56
2023/11/28 02:35:40;;;;;;;7.72;4.95;;;;;;;-1.10;62.68;97513.63;5032729;28;20033;-57
2023/11/28 02:38:06;;;;;;;6.20;3.55;;;;;;;-1.13;62.74;97530.47;5044604;28;20112;-55
2023/11/28 02:40:31;;;;;;;6.10;3.70;;;;;;;-1.09;62.89;97529.28;5052536;28;20268;-58
2023/11/28 02:42:57;;;;;;;6.50;3.90;;;;;;;-1.07;62.05;97519.50;5052355;28;20044;-57
2023/11/28 02:45:22;;;;;;;5.30;3.55;;;;;;;-1.17;62.53;97534.25;5052355;28;20055;-57
2023/11/28 02:47:48;;;;;;;5.45;3.55;;;;;;;-1.15;62.32;97534.97;5054810;28;20025;-58
2023/11/28 02:50:14;;;;;;;5.72;4.13;;;;;;;-1.18;62.18;97522.88;5058860;28;20029;-56
2023/11/28 02:52:42;;;;;;;5.43;3.75;;;;;;;-1.12;62.79;97532.13;5056925;28;20047;-58
2023/11/28 02:55:08;;;;;;;5.18;3.65;;;;;;;-1.14;62.14;97541.91;5058804;28;20043;-57
2023/11/28 02:57:34;;;;;;;5.18;3.10;;;;;;;-1.11;61.98;97556.59;5057965;28;20029;-53
2023/11/28 02:59:59;;;;;;;7.95;3.80;;;;;;;-1.14;61.93;97549.78;5056144;28;20061;-56
2023/11/28 03:02:27;;;;;;;5.90;3.70;;;;;;;-1.08;61.84;97548.53;5058411;28;20048;-53
2023/11/28 03:04:52;;;;;;;5.07;3.63;;;;;;;-1.13;62.33;97546.22;5058578;28;20025;-59
2023/11/28 03:07:18;;;;;;;5.20;3.70;;;;;;;-1.12;62.33;97568.91;5058579;28;20021;-59
2023/11/28 03:09:43;;;;;;;6.70;3.67;;;;;;;-1.35;62.57;97531.94;5057818;28;20098;-62
2023/11/28 03:12:09;;;;;;;6.55;3.67;;;;;;;-1.02;61.75;97567.31;5050024;28;20026;-58
2023/11/28 03:14:41;;;;;;;5.68;3.20;;;;;;;-1.05;62.70;97550.94;5038780;28;20037;-58
2023/11/28 03:17:06;;;;;;;6.72;4.05;;;;;;;-1.13;62.50;97551.47;5039730;28;20418;-57
2023/11/28 03:19:32;;;;;;;7.20;4.03;;;;;;;-1.11;62.98;97556.59;5038382;28;20038;-57
2023/11/28 03:21:57;;;;;;;5.85;4.10;;;;;;;-1.12;62.70;97571.53;5040176;28;20021;-57
2023/11/28 03:24:23;;;;;;;8.90;4.30;;;;;;;-1.13;62.61;97567.22;5038195;28;20094;-58
2023/11/28 03:26:48;;;;;;;8.95;4.57;;;;;;;-1.14;63.35;97576.03;5038296;28;20111;-56
2023/11/28 03:29:14;;;;;;;6.80;3.85;;;;;;;-1.09;63.83;97578.34;5038215;28;20033;-57
2023/11/28 03:31:40;;;;;;;6.88;4.22;;;;;;;-1.07;63.74;97586.97;5037349;28;20106;-52
2023/11/28 03:34:06;;;;;;;6.32;3.88;;;;;;;-1.06;63.93;97599.16;5038527;28;20025;-58
2023/11/28 03:36:32;;;;;;;7.97;4.22;;;;;;;-1.08;63.49;97591.38;5039128;28;20033;-59
2023/11/28 03:38:59;;;;;;;6.60;4.13;;;;;;;-1.02;64.16;97611.94;5046200;28;20241;-60
2023/11/28 03:41:25;;;;;;;6.70;4.68;;;;;;;-1.01;64.64;97618.06;5057836;28;20349;-59
2023/11/28 03:43:50;;;;;;;7.72;4.50;;;;;;;-1.00;64.67;97619.75;5056119;28;20033;-53
2023/11/28 03:46:16;;;;;;;7.38;4.57;;;;;;;-1.07;64.55;97619.31;5057435;28;20033;-56
2023/11/28 03:48:42;;;;;;;5.72;4.00;;;;;;;-1.10;64.90;97623.94;5058083;28;20411;-57
2023/11/28 03:51:08;;;;;;;5.45;3.28;;;;;;;-1.14;64.51;97623.31;5056766;28;20033;-59
2023/11/28 03:53:35;;;;;;;5.28;3.20;;;;;;;-1.36;64.54;97639.66;5057926;28;20032;-56
2023/11/28 03:56:08;;;;;;;4.95;3.15;;;;;;;-1.46;64.42;97649.94;5057199;28;20047;-58
2023/11/28 03:58:34;;;;;;;6.25;3.05;;;;;;;-1.61;64.45;97631.66;5057209;28;20037;-60
2023/11/28 04:01:00;;;;;;;7.43;3.60;;;;;;;-1.76;65.38;97653.63;5054013;28;20190;-57
2023/11/28 04:03:28;;;;;;;6.30;4.03;;;;;;;-1.99;65.77;97645.47;5054869;28;20040;-60
2023/11/28 04:05:55;;;;;;;5.32;3.90;;;;;;;-1.97;65.76;97672.44;5053476;28;20029;-56
2023/11/28 04:08:20;;;;;;;6.82;3.95;;;;;;;-2.03;65.91;97662.34;5053336;28;20028;-59
2023/11/28 04:10:46;;;;;;;5.15;3.83;;;;;;;-2.02;65.56;97679.78;5054859;28;20021;-54
2023/11/28 04:13:11;;;;;;;6.57;3.92;;;;;;;-2.00;65.39;97691.00;5054801;28;20025;-58
2023/11/28 04:15:38;;;;;;;8.27;4.00;;;;;;;-2.04;65.53;97679.03;5054708;28;20151;-58
2023/11/28 04:18:05;;;;;;;6.50;3.65;;;;;;;-2.01;65.30;97697.19;5054450;28;20393;-58
2023/11/28 04:20:30;;;;;;;6.15;3.83;;;;;;;-2.04;65.26;97705.25;5054725;28;20952;-59
2023/11/28 04:22:56;;;;;;;6.47;4.30;;;;;;;-2.08;65.46;97709.00;5052822;28;20048;-59
2023/11/28 04:25:23;;;;;;;7.65;4.10;;;;;;;-2.11;65.54;97703.97;5054210;28;20106;-58
2023/11/28 04:27:49;;;;;;;6.05;3.80;;;;;;;-2.12;65.24;97705.72;5054100;28;20049;-57
2023/11/28 04:30:15;;;;;;;6.60;4.13;;;;;;;-2.22;65.11;97705.47;5041257;28;20045;-59
2023/11/28 04:32:41;;;;;;;8.48;4.40;;;;;;;-2.19;65.65;97725.41;5034618;28;20360;-59
2023/11/28 04:35:07;;;;;;;7.93;4.50;;;;;;;-2.21;65.76;97725.50;5034263;28;20069;-59
2023/11/28 04:37:32;;;;;;;6.97;3.67;;;;;;;-2.11;65.36;97738.06;5033518;28;20052;-57
2023/11/28 04:39:58;;;;;;;6.72;3.72;;;;;;;-2.09;64.84;97725.69;5034449;28;20437;-60
2023/11/28 04:42:24;;;;;;;6.10;3.55;;;;;;;-2.11;64.84;97735.44;5034367;28;20059;-58
2023/11/28 04:44:50;;;;;;;6.63;4.22;;;;;;;-2.12;64.49;97741.63;5035071;28;20060;-60
2023/11/28 04:47:16;;;;;;;6.80;4.18;;;;;;;-2.12;64.31;97752.09;5042616;28;20099;-56
2023/11/28 04:49:42;;;;;;;8.18;3.42;;;;;;;-2.05;64.23;97761.25;5054268;28;20036;-59
2023/11/28 04:52:07;;;;;;;7.22;4.30;;;;;;;-2.37;63.90;97727.41;5045494;28;20025;-56
2023/11/28 04:54:34;;;;;;;7.43;4.13;;;;;;;-2.42;64.24;97729.44;5033497;28;20033;-56
2023/11/28 04:57:00;;;;;;;9.43;4.60;;;;;;;-2.24;64.21;97764.19;5033661;28;20318;-59
2023/11/28 04:59:26;;;;;;;7.43;3.95;;;;;;;-2.18;64.10;97772.50;5034259;28;20030;-55
2023/11/28 05:01:51;;;;;;;8.27;4.55;;;;;;;-2.11;63.97;97774.75;5033651;28;20036;-59
2023/11/28 05:04:17;;;;;;;6.90;4.53;;;;;;;-2.16;63.90;97782.91;5033737;28;20332;-58
2023/11/28 05:06:43;;;;;;;6.30;4.45;;;;;;;-2.48;63.21;97733.31;5034717;28;20372;-56
2023/11/28 05:09:10;;;;;;;6.20;4.13;;;;;;;-2.20;63.75;97787.47;5040737;28;20032;-57
2023/11/28 05:11:37;;;;;;;7.75;4.32;;;;;;;-2.15;63.42;97786.38;5053071;28;20422;-56
2023/11/28 05:14:03;;;;;;;9.30;4.97;;;;;;;-2.18;64.03;97795.25;5049972;28;20035;-57
2023/11/28 05:16:30;;;;;;;6.70;4.07;;;;;;;-2.48;63.32;97762.13;5033568;28;20092;-57
2023/11/28 05:18:56;;;;;;;7.07;4.25;;;;;;;-2.13;63.46;97808.09;5033624;28;20041;-60
2023/11/28 05:21:22;;;;;;;8.07;4.35;;;;;;;-2.12;63.56;97820.28;5033440;28;20029;-57
2023/11/28 05:23:47;;;;;;;7.38;4.47;;;;;;;-2.12;63.36;97828.13;5033181;28;20059;-57
2023/11/28 05:26:13;;;;;;;8.05;4.50;;;;;;;-2.17;63.38;97834.50;5033437;28;20046;-57
2023/11/28 05:28:39;;;;;;;7.35;4.80;;;;;;;-2.15;63.76;97830.94;5043152;28;20463;-52
2023/11/28 05:31:05;;;;;;;7.43;4.63;;;;;;;-2.20;63.24;97816.31;5031914;28;20037;-59
2023/11/28 05:33:30;;;;;;;9.55;4.55;;;;;;;-2.13;63.79;97843.00;5032391;28;20028;-57
2023/11/28 05:35:56;;;;;;;10.35;5.20;;;;;;;-2.10;63.65;97847.25;5033698;28;20035;-60
2023/11/28 05:38:21;;;;;;;8.23;5.25;;;;;;;-2.12;63.67;97844.69;5050477;28;20036;-60
2023/11/28 05:40:47;;;;;;;9.88;4.63;;;;;;;-2.13;63.83;97844.81;5052474;28;20025;-59
2023/11/28 05:43:12;;;;;;;7.93;4.65;;;;;;;-2.04;62.99;97866.06;5053091;28;20037;-58
2023/11/28 05:45:38;;;;;;;9.07;4.75;;;;;;;-1.99;63.65;97868.41;5050903;28;20401;-56
2023/11/28 05:48:04;;;;;;;8.20;4.50;;;;;;;-2.03;63.36;97862.50;5052693;28;20035;-57
2023/11/28 05:50:29;;;;;;;8.45;4.88;;;;;;;-2.06;63.50;97877.56;5037090;28;20103;-61
2023/11/28 05:52:55;;;;;;;8.52;4.70;;;;;;;-2.14;62.73;97871.97;5045413;28;20345;-50
2023/11/28 05:55:22;;;;;;;9.48;4.38;;;;;;;-2.09;62.74;97881.22;5042789;28;20147;-57
2023/11/28 05:57:48;;;;;;;8.18;4.70;;;;;;;-2.14;63.11;97880.66;5032804;28;20352;-62
2023/11/28 06:00:14;;;;;;;9.70;4.43;;;;;;;-2.15;62.92;97883.38;5034698;28;20048;-52
2023/11/28 06:02:40;;;;;;;7.85;4.65;;;;;;;-2.21;62.60;97882.78;5043318;28;20128;-56
2023/11/28 06:05:07;;;;;;;8.85;4.65;;;;;;;-2.21;62.60;97895.91;5042950;28;20466;-54
2023/11/28 06:07:33;;;;;;;8.18;4.70;;;;;;;-2.13;63.06;97892.84;5036107;28;20029;-54
2023/11/28 06:09:59;;;;;;;8.43;4.70;;;;;;;-2.17;62.94;97897.44;5032454;28;20025;-55
2023/11/28 06:12:25;;;;;;;8.95;4.65;;;;;;;-2.21;62.63;97895.91;5032445;28;20119;-54
2023/11/28 06:14:53;;;;;;;7.93;5.00;;;;;;;-2.14;62.59;97906.88;5032629;28;20459;-59
2023/11/28 06:17:19;;;;;;;6.22;3.50;;;;;;;-2.07;62.01;97916.06;5032802;28;20163;-60
2023/11/28 06:19:45;;;;;;;8.80;4.97;;;;;;;-2.14;61.92;97927.03;5032372;28;20033;-57
2023/11/28 06:22:11;;;;;;;7.03;4.38;;;;;;;-2.19;62.26;97930.72;5031715;28;20034;-60
2023/11/28 06:24:37;;;;;;;8.18;4.85;;;;;;;-2.10;62.30;97934.59;5032307;28;20029;-59
2023/11/28 06:27:06;;;;;;;6.85;4.00;;;;;;;-2.10;62.13;97939.00;5033483;28;20057;-60
2023/11/28 06:29:32;;;;;;;7.05;4.13;;;;;;;-2.21;61.99;97932.59;5031670;28;20056;-56
2023/11/28 06:31:59;;;;;;;6.38;4.10;;;;;;;-2.09;61.50;97936.28;5041049;28;20372;-58
2023/11/28 06:34:25;;;;;;;7.50;4.43;;;;;;;-2.14;61.64;97948.00;5043350;28;20051;-58
2023/11/28 06:36:51;;;;;;;8.07;4.57;;;;;;;-2.20;62.44;97950.03;5038507;28;20037;-56
2023/11/28 06:39:18;;;;;;;9.95;5.50;;;;;;;-2.18;62.28;97963.88;5033315;28;20356;-56
2023/11/28 06:41:45;;;;;;;10.57;4.97;;;;;;;-2.11;61.99;97966.16;5042935;28;20492;-57
2023/11/28 06:44:11;;;;;;;10.48;4.50;;;;;;;-2.08;62.15;97968.59;5050493;28;20470;-55
2023/11/28 06:46:37;;;;;;;10.27;5.28;;;;;;;-2.03;62.25;97971.78;5042913;28;20348;-57
2023/11/28 06:49:03;;;;;;;10.40;5.32;;;;;;;-2.02;62.12;97981.34;5036903;28;20040;-55
2023/11/28 06:51:29;;;;;;;6.63;3.72;;;;;;;-1.89;61.54;97995.44;5048114;28;20047;-55
2023/11/28 06:53:54;;;;;;;8.13;4.68;;;;;;;-1.87;61.05;98000.59;5051980;28;20083;-52
2023/11/28 06:56:20;;;;;;;9.35;4.60;;;;;;;-1.97;61.55;98000.28;5052249;28;20041;-57
2023/11/28 06:58:46;;;;;;;10.35;5.25;;;;;;;-2.08;61.69;98005.31;5050918;28;20140;-55
2023/11/28 07:01:11;;;;;;;8.00;5.03;;;;;;;-2.06;61.81;98009.53;5051668;28;20032;-53
2023/11/28 07:03:38;;;;;;;8.23;4.57;;;;;;;-1.99;62.06;98004.78;5051579;28;20059;-54
2023/11/28 07:06:04;;;;;;;8.23;4.95;;;;;;;-2.00;62.48;98013.56;5051560;28;20078;-54
2023/11/28 07:08:29;;;;;;;11.45;4.82;;;;;;;-2.04;61.99;98015.56;5051420;28;20045;-56
2023/11/28 07:10:55;;;;;;;10.35;4.95;;;;;;;-2.10;62.95;98001.94;5051669;28;20037;-59
2023/11/28 07:13:21;;;;;;;8.52;5.07;;;;;;;-1.99;62.30;98017.88;5051943;28;20066;-56
2023/11/28 07:15:46;;;;;;;11.32;5.10;;;;;;;-1.98;62.30;98032.69;5051019;28;20055;-61
2023/11/28 07:18:19;;;;;;;7.45;4.65;;;;;;;-1.92;62.51;98037.59;5052013;28;20033;-58
2023/11/28 07:20:47;;;;;;;8.82;4.57;;;;;;;-1.93;62.34;98041.16;5051640;28;20029;-59
2023/11/28 07:23:13;;;;;;;10.55;5.00;;;;;;;-1.91;62.20;98057.66;5052034;28;20033;-59
2023/11/28 07:25:39;;;;;;;8.90;5.00;;;;;;;-1.91;62.68;98052.41;5051506;28;20040;-55
2023/11/28 07:28:05;;;;;;;6.47;4.25;;;;;;;-1.99;62.15;98035.41;5051679;28;20044;-55
2023/11/28 07:30:30;;;;;;;6.80;4.18;;;;;;;-2.03;62.31;98040.84;5052040;28;20055;-58
2023/11/28 07:32:56;;;;;;;6.75;4.30;;;;;;;-1.90;62.13;98064.59;5051591;28;20096;-59
2023/11/28 07:35:22;;;;;;;7.03;4.28;;;;;;;-1.96;62.15;98059.66;5055200;28;20040;-55
2023/11/28 07:37:48;;;;;;;7.93;4.80;;;;;;;-1.94;62.51;98067.47;5056026;28;20024;-59
2023/11/28 07:40:13;;;;;;;6.55;4.18;;;;;;;-2.04;62.45;98049.66;5055410;28;20443;-59
2023/11/28 07:42:39;;;;;;;10.52;5.03;;;;;;;-1.91;62.83;98094.38;5055381;28;20032;-59
2023/11/28 07:45:05;;;;;;;7.43;4.28;;;;;;;-1.89;62.54;98089.88;5055815;28;20044;-57
2023/11/28 07:47:32;;;;;;;8.70;5.22;;;;;;;-1.91;62.45;98099.63;5055384;28;20127;-59
2023/11/28 07:49:58;;;;;;;7.95;4.70;;;;;;;-1.98;62.59;98079.06;5055097;28;20029;-56
2023/11/28 07:52:24;;;;;;;8.07;4.60;;;;;;;-1.92;62.20;98103.16;5055494;28;20060;-59
2023/11/28 07:54:50;;;;;;;11.60;4.50;;;;;;;-1.86;62.54;98104.56;5055458;28;20120;-59
2023/11/28 07:57:15;;;;;;;8.73;4.80;;;;;;;-1.97;62.68;98112.22;5055143;28;20412;-57
2023/11/28 07:59:46;;;;;;;11.85;4.97;;;;;;;-1.85;62.41;98106.25;5055364;28;20102;-53
2023/11/28 08:02:13;;;;;;;10.13;5.10;;;;;;;-1.98;61.80;98100.03;5055552;28;20479;-52
2023/11/28 08:04:39;;;;;;;9.25;5.03;;;;;;;-1.86;62.15;98128.19;5055237;28;20036;-60
2023/11/28 08:07:04;;;;;;;8.40;4.82;;;;;;;-1.98;62.20;98093.00;5054850;28;20086;-58
2023/11/28 08:09:30;;;;;;;11.48;5.20;;;;;;;-1.77;62.09;98132.06;5055170;28;20048;-56
2023/11/28 08:11:56;;;;;;;11.20;4.90;;;;;;;-1.78;62.02;98118.13;5055307;28;20566;-56
2023/11/28 08:14:21;;;;;;;8.65;4.32;;;;;;;-1.88;61.86;98130.06;5055253;28;20029;-56
2023/11/28 08:16:47;;;;;;;11.02;4.82;;;;;;;-1.85;61.88;98121.19;5054596;28;20037;-60
2023/11/28 08:19:13;;;;;;;9.85;4.82;;;;;;;-1.93;61.85;98121.59;5055085;28;20072;-57
2023/11/28 08:21:39;;;;;;;8.23;4.30;;;;;;;-1.88;61.89;98109.06;5055046;28;20040;-59
2023/11/28 08:24:05;;;;;;;7.32;4.47;;;;;;;-1.79;61.67;98137.41;5054724;28;20356;-55
2023/11/28 08:26:30;;;;;;;9.48;4.53;;;;;;;-1.86;61.63;98130.81;5054677;28;20044;-55
2023/11/28 08:28:56;;;;;;;8.60;4.97;;;;;;;-2.14;61.96;98106.16;5055036;28;20113;-59
2023/11/28 08:31:22;;;;;;;10.18;5.15;;;;;;;-1.83;61.88;98161.28;5055073;28;20106;-60
2023/11/28 08:33:48;;;;;;;9.20;5.13;;;;;;;-1.81;61.31;98169.91;5054523;28;20040;-59
2023/11/28 08:36:14;;;;;;;9.45;4.95;;;;;;;-1.84;62.07;98180.56;5054316;28;20028;-58
2023/11/28 08:38:39;;;;;;;13.20;5.70;;;;;;;-1.80;61.85;98171.59;5054526;28;20062;-57
2023/11/28 08:41:06;;;;;;;9.80;5.38;;;;;;;-1.76;61.80;98175.72;5054978;28;20029;-59
2023/11/28 08:43:31;;;;;;;9.88;4.85;;;;;;;-1.70;61.70;98177.16;5054502;28;20039;-61
2023/11/28 08:45:57;;;;;;;9.45;5.10;;;;;;;-1.62;61.83;98188.06;5053244;28;20207;-58
2023/11/28 08:48:23;;;;;;;10.32;5.03;;;;;;;-1.56;61.89;98190.38;5054611;28;20051;-58
2023/11/28 08:50:49;;;;;;;11.15;5.38;;;;;;;-1.44;61.70;98191.44;5054604;28;20090;-59
2023/11/28 08:53:14;;;;;;;11.70;6.60;;;;;;;-1.41;61.79;98193.88;5054405;28;20056;-60
2023/11/28 08:55:40;;;;;;;10.05;5.65;;;;;;;-1.58;60.90;98147.59;5054194;28;20332;-61
2023/11/28 08:58:05;;;;;;;12.38;6.78;;;;;;;-1.28;61.52;98203.66;5054539;28;20094;-61
2023/11/28 09:00:31;;;;;;;15.13;8.13;;;;;;;-1.23;61.08;98207.72;5054489;28;20032;-59
2023/11/28 09:02:57;;;;;;;14.93;8.23;;;;;;;-1.33;61.39;98199.53;5054161;28;20430;-58
2023/11/28 09:05:22;;;;;;;16.23;8.88;;;;;;;-1.17;60.81;98217.03;5054371;28;20401;-60
2023/11/28 09:07:49;;;;;;;22.38;10.88;;;;;;;-1.20;60.40;98217.22;5053734;28;20029;-61
2023/11/28 09:10:15;;;;;;;18.73;9.75;;;;;;;-1.24;60.50;98234.06;5054062;28;20423;-58
2023/11/28 09:12:46;;;;;;;19.00;9.07;;;;;;;-1.19;60.18;98239.91;5053999;28;20029;-59
2023/11/28 09:15:13;;;;;;;16.80;8.25;;;;;;;-1.21;60.52;98234.72;5053886;28;20029;-61
2023/11/28 09:17:39;;;;;;;30.92;15.13;;;;;;;-1.24;60.36;98240.16;5053582;28;20090;-59
2023/11/28 09:20:05;;;;;;;30.95;12.80;;;;;;;-1.23;60.55;98248.88;5053841;28;20033;-59
2023/11/28 09:22:31;;;;;;;24.40;11.80;;;;;;;-1.27;60.63;98244.72;5053321;28;20406;-58
2023/11/28 09:24:56;;;;;;;32.30;16.38;;;;;;;-1.33;60.76;98257.28;5054000;28;20302;-59
2023/11/28 09:27:22;;;;;;;35.30;15.63;;;;;;;-1.31;60.21;98246.72;5053409;28;20454;-58
2023/11/28 09:29:47;;;;;;;51.72;26.15;;;;;;;-1.34;60.62;98260.84;5053629;28;20071;-56
2023/11/28 09:32:15;;;;;;;25.75;12.35;;;;;;;-1.38;60.65;98259.34;5053684;28;20066;-58
2023/11/28 09:34:43;;;;;;;24.27;10.88;;;;;;;-1.35;60.37;98258.28;5053340;28;20366;-62
2023/11/28 09:37:08;;;;;;;13.48;7.70;;;;;;;-1.40;60.63;98262.97;5052911;28;20029;-57
2023/11/28 09:39:34;;;;;;;12.13;6.57;;;;;;;-1.31;60.06;98263.28;5053566;28;20036;-58
2023/11/28 09:42:05;;;;;;;18.33;8.88;;;;;;;-1.24;59.86;98276.06;5053407;28;20025;-58
2023/11/28 09:44:34;;;;;;;15.65;9.00;;;;;;;-1.31;60.30;98270.34;5053411;28;20040;-59
2023/11/28 09:47:10;;;;;;;16.63;8.65;;;;;;;-1.30;60.60;98286.00;5053306;28;20045;-59
2023/11/28 09:49:41;;;;;;;14.05;7.35;;;;;;;-1.26;60.31;98296.31;5053384;28;20040;-58
2023/11/28 09:52:08;;;;;;;10.88;7.03;;;;;;;-1.35;60.49;98300.31;5053233;28;20033;-62
2023/11/28 09:54:37;;;;;;;11.57;6.15;;;;;;;-1.32;60.57;98302.78;5053243;28;20040;-59
2023/11/28 09:57:04;;;;;;;14.35;6.20;;;;;;;-1.36;60.49;98303.88;5052577;28;20029;-60
2023/11/28 09:59:30;;;;;;;11.45;6.15;;;;;;;-1.45;60.10;98320.97;5053243;28;20375;-59
2023/11/28 10:01:59;;;;;;;11.82;6.75;;;;;;;-1.49;60.35;98316.84;5052097;28;20028;-61
2023/11/28 10:04:25;;;;;;;8.68;5.00;;;;;;;-1.52;60.68;98319.63;5053019;28;20040;-60
2023/11/28 10:06:51;;;;;;;9.52;5.72;;;;;;;-1.51;60.88;98324.81;5053005;28;20355;-56
2023/11/28 10:09:16;;;;;;;12.65;6.30;;;;;;;-1.43;60.10;98331.41;5052913;28;20370;-60
2023/11/28 10:11:49;;;;;;;10.20;5.47;;;;;;;-1.42;60.65;98330.47;5052612;28;20025;-59
2023/11/28 10:14:15;;;;;;;14.27;6.03;;;;;;;-1.42;60.31;98322.59;5052914;28;20033;-61
2023/11/28 10:16:46;;;;;;;10.13;5.60;;;;;;;-1.47;60.56;98338.59;5052924;28;20032;-59
2023/11/28 10:19:13;;;;;;;14.20;7.38;;;;;;;-1.50;60.64;98342.25;5052692;28;20036;-56
2023/11/28 10:21:39;;;;;;;10.68;5.65;;;;;;;-1.57;60.49;98325.13;5052398;28;20094;-58
2023/11/28 10:24:07;;;;;;;15.63;6.90;;;;;;;-1.53;60.67;98352.91;5052762;28;20043;-62
2023/11/28 10:26:33;;;;;;;12.98;7.95;;;;;;;-1.59;61.03;98346.22;5052810;28;20086;-58
2023/11/28 10:29:02;;;;;;;9.35;5.30;;;;;;;-1.60;60.50;98331.41;5051451;28;20032;-60
2023/11/28 10:31:27;;;;;;;10.43;5.50;;;;;;;-1.45;60.76;98363.84;5035992;28;20079;-58
2023/11/28 10:33:59;;;;;;;8.55;5.32;;;;;;;-1.62;60.43;98321.91;5036202;28;20036;-57
2023/11/28 10:36:26;;;;;;;11.80;5.65;;;;;;;-1.36;59.89;98365.13;5048734;28;20048;-63
2023/11/28 10:38:52;;;;;;;9.45;5.43;;;;;;;-1.34;60.03;98376.38;5045600;28;20140;-60
2023/11/28 10:41:18;;;;;;;8.95;4.82;;;;;;;-1.35;59.65;98384.31;5048863;28;20119;-54
2023/11/28 10:43:45;;;;;;;9.13;4.93;;;;;;;-1.43;59.76;98371.66;5047937;28;20359;-58
2023/11/28 10:46:15;;;;;;;13.57;5.50;;;;;;;-1.36;60.13;98383.50;5033052;28;20029;-55
2023/11/28 10:48:40;;;;;;;10.68;5.30;;;;;;;-1.37;59.22;98388.81;5044216;28;20047;-55
2023/11/28 10:51:09;;;;;;;8.40;4.63;;;;;;;-1.32;59.52;98386.81;5050091;28;20067;-58
2023/11/28 10:53:36;;;;;;;8.52;4.35;;;;;;;-1.35;59.12;98387.81;5050651;28;20086;-56
2023/11/28 10:56:03;;;;;;;7.90;4.35;;;;;;;-1.35;59.27;98398.31;5049714;28;20029;-60
2023/11/28 10:58:29;;;;;;;9.73;5.10;;;;;;;-1.43;59.79;98394.41;5047081;28;20033;-59
2023/11/28 11:01:01;;;;;;;10.30;5.53;;;;;;;-1.42;60.12;98402.22;5035426;28;20040;-60
2023/11/28 11:03:27;;;;;;;9.40;5.10;;;;;;;-1.52;59.88;98406.25;5050228;28;20044;-58
2023/11/28 11:05:54;;;;;;;9.13;4.88;;;;;;;-1.46;60.00;98412.03;5044654;28;20094;-62
2023/11/28 11:08:22;;;;;;;8.27;4.68;;;;;;;-1.46;59.74;98411.16;5051967;28;20033;-61
2023/11/28 11:10:49;;;;;;;9.00;4.65;;;;;;;-1.55;59.73;98427.41;5050539;28;20467;-60
2023/11/28 11:13:35;;;;;;;9.57;4.57;;;;;;;-1.60;60.43;98439.00;5050427;28;20033;-61
2023/11/28 11:16:19;;;;;;;9.63;4.95;;;;;;;-1.59;60.03;98443.34;5044722;28;20064;-58
2023/11/28 11:18:48;;;;;;;10.02;5.20;;;;;;;-1.65;60.05;98442.81;5039963;28;20106;-60
2023/11/28 11:21:22;;;;;;;8.20;4.68;;;;;;;-1.57;60.60;98450.28;5043296;28;20028;-59
2023/11/28 11:23:54;;;;;;;11.60;5.03;;;;;;;-1.50;60.15;98457.75;5038538;28;20048;-60
2023/11/28 11:26:30;;;;;;;10.43;4.75;;;;;;;-1.57;60.11;98456.34;5053786;28;20065;-59
2023/11/28 11:28:57;;;;;;;11.00;5.47;;;;;;;-1.66;60.16;98446.34;5034043;28;20029;-60